Time;durP1;ratioP1;P1;durP2;ratioP2;P2;SDS_P1;SDS_P2;PMS_P1;PMS_P2;Temp;Humidity;BMP_temperature;BMP_pressure;BME280_temperature;BME280_humidity;BME280_pressure;Samples;Min_cycle;Max_cycle;Signal;HPM_P1;HPM_P2
2023/01/23 00:00:01;;;;;;;56.17;26.40;;;;;;;-0.46;100.00;103495.28;5071583;28;20016;-82
2023/01/23 00:02:26;;;;;;;59.47;27.40;;;;;;;-0.43;100.00;103498.06;5069392;28;20032;-82
2023/01/23 00:04:51;;;;;;;52.63;26.38;;;;;;;-0.42;100.00;103494.72;5069000;28;20386;-82
2023/01/23 00:07:17;;;;;;;54.22;25.80;;;;;;;-0.43;100.00;103482.69;5062101;28;20067;-82
2023/01/23 00:09:42;;;;;;;55.05;25.77;;;;;;;-0.43;100.00;103492.94;5072104;28;20017;-82
2023/01/23 00:12:07;;;;;;;57.55;25.80;;;;;;;-0.47;100.00;103480.72;5071532;28;20423;-82
2023/01/23 00:14:32;;;;;;;55.67;25.85;;;;;;;-0.43;100.00;103484.38;5071490;28;20082;-82
2023/01/23 00:16:58;;;;;;;58.80;26.42;;;;;;;-0.44;100.00;103493.72;5066991;28;20020;-82
2023/01/23 00:19:23;;;;;;;58.50;26.60;;;;;;;-0.46;100.00;103482.47;5069259;28;20036;-82
2023/01/23 00:21:48;;;;;;;58.42;26.63;;;;;;;-0.55;100.00;103472.56;5061788;28;20478;-82
2023/01/23 00:24:14;;;;;;;56.58;25.48;;;;;;;-0.47;100.00;103488.41;5068954;28;20082;-82
2023/01/23 00:26:39;;;;;;;56.13;26.83;;;;;;;-0.54;100.00;103479.44;5063306;28;20460;-82
2023/01/23 00:29:04;;;;;;;56.88;26.88;;;;;;;-0.51;100.00;103483.88;5068871;28;20046;-82
2023/01/23 00:31:36;;;;;;;55.75;26.48;;;;;;;-0.51;100.00;103489.00;5068135;28;20025;-81
2023/01/23 00:34:07;;;;;;;56.75;27.60;;;;;;;-0.51;100.00;103497.56;5071347;28;20473;-82
2023/01/23 00:36:36;;;;;;;58.15;26.10;;;;;;;-0.49;100.00;103496.00;5512180;22;20053;-81
2023/01/23 00:39:02;;;;;;;62.05;26.48;;;;;;;-0.48;100.00;103500.34;5051968;28;20479;-81
2023/01/23 00:41:28;;;;;;;58.15;26.85;;;;;;;-0.51;100.00;103500.13;5041889;28;20037;-82
2023/01/23 00:43:53;;;;;;;58.88;27.45;;;;;;;-0.46;100.00;103510.69;5048338;28;20029;-82
2023/01/23 00:46:19;;;;;;;62.40;27.10;;;;;;;-0.45;100.00;103512.47;5051056;28;20025;-82
2023/01/23 00:48:45;;;;;;;58.83;26.70;;;;;;;-0.45;100.00;103517.59;5048321;28;20029;-82
2023/01/23 00:51:10;;;;;;;61.40;26.65;;;;;;;-0.46;100.00;103508.13;5050641;28;20358;-82
2023/01/23 00:53:36;;;;;;;59.55;26.58;;;;;;;-0.40;100.00;103520.44;5049097;28;20100;-82
2023/01/23 00:56:01;;;;;;;58.80;26.92;;;;;;;-0.42;100.00;103510.09;5050505;28;20041;-82
2023/01/23 00:58:26;;;;;;;66.15;27.88;;;;;;;-0.41;100.00;103509.31;5049116;28;20060;-82
2023/01/23 01:00:52;;;;;;;57.80;25.73;;;;;;;-0.40;100.00;103512.75;5050026;28;20033;-81
2023/01/23 01:03:19;;;;;;;59.58;26.45;;;;;;;-0.39;100.00;103507.75;5029388;28;20049;-82
2023/01/23 01:05:44;;;;;;;57.67;25.02;;;;;;;-0.38;100.00;103503.50;5044429;28;20021;-81
2023/01/23 01:08:10;;;;;;;59.85;26.02;;;;;;;-0.39;100.00;103505.19;5049950;28;20379;-82
2023/01/23 01:10:35;;;;;;;59.67;26.00;;;;;;;-0.38;100.00;103504.38;5042172;28;20118;-81
2023/01/23 01:13:02;;;;;;;62.50;26.80;;;;;;;-0.40;100.00;103507.63;5051548;28;20538;-82
2023/01/23 01:15:28;;;;;;;63.60;26.67;;;;;;;-0.44;100.00;103501.41;5049654;28;20569;-82
2023/01/23 01:17:53;;;;;;;61.55;26.77;;;;;;;-0.45;100.00;103493.66;5043375;28;20030;-82
2023/01/23 01:20:22;;;;;;;65.32;26.55;;;;;;;-0.40;100.00;103508.50;5051081;28;20039;-82
2023/01/23 01:22:47;;;;;;;51.80;24.15;;;;;;;-0.39;100.00;103504.25;5044357;28;20403;-81
2023/01/23 01:25:13;;;;;;;61.90;26.52;;;;;;;-0.40;100.00;103502.50;5050522;28;20116;-82
2023/01/23 01:27:38;;;;;;;64.13;28.05;;;;;;;-0.39;100.00;103506.81;5051557;28;20037;-81
2023/01/23 01:30:04;;;;;;;57.05;25.33;;;;;;;-0.38;100.00;103517.19;5050015;28;20036;-82
2023/01/23 01:32:29;;;;;;;57.95;26.10;;;;;;;-0.40;100.00;103518.75;5049410;28;20044;-82
2023/01/23 01:34:54;;;;;;;56.50;25.20;;;;;;;-0.37;100.00;103516.41;5050179;28;20025;-81
2023/01/23 01:37:21;;;;;;;67.75;27.13;;;;;;;-0.35;100.00;103517.41;5052080;28;20045;-81
2023/01/23 01:39:47;;;;;;;58.35;26.88;;;;;;;-0.38;100.00;103519.75;5053412;28;20052;-81
2023/01/23 01:42:12;;;;;;;55.65;24.90;;;;;;;-0.37;100.00;103524.09;5043895;28;20520;-81
2023/01/23 01:44:59;;;;;;;52.28;24.55;;;;;;;-0.33;100.00;103526.09;5053207;28;20029;-81
2023/01/23 01:47:25;;;;;;;56.17;24.70;;;;;;;-0.35;100.00;103517.41;5054559;28;20037;-81
2023/01/23 01:49:58;;;;;;;54.42;25.67;;;;;;;-0.33;100.00;103525.16;5049596;28;20025;-81
2023/01/23 01:52:24;;;;;;;60.67;26.30;;;;;;;-0.37;100.00;103524.09;5053130;28;20035;-81
2023/01/23 01:54:52;;;;;;;57.75;25.70;;;;;;;-0.33;100.00;103531.22;5053890;28;20025;-82
2023/01/23 01:57:41;;;;;;;54.58;24.88;;;;;;;-0.33;100.00;103531.22;5054388;28;20029;-82
2023/01/23 02:00:09;;;;;;;60.25;26.02;;;;;;;-0.32;100.00;103525.28;5048756;28;20032;-82
2023/01/23 02:02:42;;;;;;;57.47;26.35;;;;;;;-0.32;100.00;103516.72;5041609;28;20037;-82
2023/01/23 02:05:27;;;;;;;53.17;25.15;;;;;;;-0.36;100.00;103510.50;5054453;28;20053;-82
2023/01/23 02:08:03;;;;;;;56.30;24.92;;;;;;;-0.35;100.00;103512.28;5054717;28;20029;-82
2023/01/23 02:10:29;;;;;;;53.28;24.30;;;;;;;-0.35;100.00;103517.41;5050443;28;20060;-82
2023/01/23 02:12:54;;;;;;;53.42;24.92;;;;;;;-0.37;100.00;103513.84;5050707;28;20455;-81
2023/01/23 02:15:21;;;;;;;52.78;25.42;;;;;;;-0.39;100.00;103511.94;5053718;28;20021;-81
2023/01/23 02:17:51;;;;;;;57.80;25.75;;;;;;;-0.37;100.00;103513.84;5048811;28;20022;-81
2023/01/23 02:20:19;;;;;;;60.53;25.65;;;;;;;-0.36;100.00;103520.75;5051614;28;20100;-81
2023/01/23 02:23:16;;;;;;;54.95;26.10;;;;;;;-0.40;100.00;103507.63;5052766;28;20029;-81
2023/01/23 02:25:42;;;;;;;66.10;26.23;;;;;;;-0.35;100.00;103517.41;5042908;28;20029;-82
2023/01/23 02:28:08;;;;;;;55.20;24.80;;;;;;;-0.36;100.00;103510.50;5052914;28;20025;-82
2023/01/23 02:30:35;;;;;;;57.85;25.83;;;;;;;-0.36;100.00;103509.59;5053734;28;20029;-82
2023/01/23 02:33:07;;;;;;;58.90;26.23;;;;;;;-0.35;100.00;103509.69;5053535;28;20021;-82
2023/01/23 02:35:32;;;;;;;58.80;26.38;;;;;;;-0.32;100.00;103517.59;5052995;28;20037;-81
2023/01/23 02:38:03;;;;;;;56.85;26.15;;;;;;;-0.32;100.00;103515.03;5047788;28;20041;-82
2023/01/23 02:40:35;;;;;;;62.33;25.42;;;;;;;-0.32;100.00;103520.16;5048860;28;20541;-82
2023/01/23 02:43:05;;;;;;;61.03;25.45;;;;;;;-0.31;100.00;103521.03;5051011;28;20111;-81
2023/01/23 02:45:31;;;;;;;57.50;25.73;;;;;;;-0.41;100.00;103495.59;5047926;28;20108;-81
2023/01/23 02:47:57;;;;;;;56.97;25.77;;;;;;;-0.29;100.00;103512.66;5052315;28;20013;-81
2023/01/23 02:50:23;;;;;;;65.28;27.85;;;;;;;-0.29;100.00;103520.34;5053560;28;20037;-81
2023/01/23 02:52:49;;;;;;;61.03;26.17;;;;;;;-0.42;100.00;103492.16;5053721;28;20021;-81
2023/01/23 02:55:16;;;;;;;55.17;25.00;;;;;;;-0.28;100.00;103508.41;5050870;28;20507;-81
2023/01/23 02:57:42;;;;;;;56.72;26.38;;;;;;;-0.28;100.00;103509.31;5049834;28;20121;-81
2023/01/23 03:00:19;;;;;;;60.97;26.23;;;;;;;-0.27;100.00;103523.88;5040279;28;20108;-81
2023/01/23 03:02:49;;;;;;;56.08;25.48;;;;;;;-0.25;100.00;103522.31;5047799;28;20540;-81
2023/01/23 03:05:14;;;;;;;60.05;25.40;;;;;;;-0.25;100.00;103517.19;5048169;28;20532;-81
2023/01/23 03:07:40;;;;;;;62.25;25.92;;;;;;;-0.29;100.00;103506.66;5051900;28;20056;-82
2023/01/23 03:10:08;;;;;;;64.63;26.48;;;;;;;-0.25;100.00;103522.31;5049366;28;20022;-81
2023/01/23 03:12:38;;;;;;;55.90;25.95;;;;;;;-0.24;100.00;103518.06;5046913;28;20114;-81
2023/01/23 03:15:05;;;;;;;58.35;25.92;;;;;;;-0.24;100.00;103529.22;5044186;28;20484;-82
2023/01/23 03:17:31;;;;;;;56.50;25.63;;;;;;;-0.27;100.00;103520.44;5051089;28;20037;-82
2023/01/23 03:19:56;;;;;;;58.65;25.38;;;;;;;-0.24;100.00;103524.06;5051052;28;20024;-82
2023/01/23 03:22:22;;;;;;;56.17;25.20;;;;;;;-0.26;100.00;103518.00;5051746;28;20036;-81
2023/01/23 03:24:47;;;;;;;55.97;25.98;;;;;;;-0.26;100.00;103523.13;5050820;28;20028;-81
2023/01/23 03:27:12;;;;;;;57.80;26.80;;;;;;;-0.26;100.00;103520.56;5037857;28;20535;-81
2023/01/23 03:32:24;;;;;;;54.63;26.15;;;;;;;-0.26;100.00;103520.56;5047057;28;20039;-82
2023/01/23 03:34:49;;;;;;;56.30;24.75;;;;;;;-0.29;100.00;103525.47;5042065;28;20038;-81
2023/01/23 03:37:16;;;;;;;61.75;26.88;;;;;;;-0.24;100.00;103530.88;5050984;28;20036;-81
2023/01/23 03:42:25;;;;;;;56.35;25.52;;;;;;;-0.26;100.00;103525.69;5039650;28;20071;-82
2023/01/23 03:44:51;;;;;;;62.63;26.48;;;;;;;-0.29;100.00;103519.47;5052242;28;20033;-81
2023/01/23 03:47:17;;;;;;;58.50;25.85;;;;;;;-0.26;100.00;103530.81;5033819;28;20108;-82
2023/01/23 03:49:42;;;;;;;59.13;25.95;;;;;;;-0.26;100.00;103528.25;5052044;28;20457;-81
2023/01/23 03:52:07;;;;;;;56.20;26.75;;;;;;;-0.23;100.00;103522.41;5045322;28;20052;-81
2023/01/23 03:54:33;;;;;;;61.33;26.42;;;;;;;-0.19;100.00;103533.75;5050510;28;20032;-82
2023/01/23 03:56:58;;;;;;;65.25;27.05;;;;;;;-0.25;100.00;103519.75;5050778;28;20028;-81
2023/01/23 03:59:23;;;;;;;60.20;25.70;;;;;;;-0.26;100.00;103523.13;5049820;28;20025;-81
2023/01/23 04:01:49;;;;;;;63.20;25.80;;;;;;;-0.25;100.00;103529.13;5045920;28;20033;-81
2023/01/23 04:04:14;;;;;;;57.35;25.75;;;;;;;-0.19;100.00;103532.09;5049179;28;20060;-82
2023/01/23 04:06:39;;;;;;;60.60;25.52;;;;;;;-0.18;100.00;103535.53;5049221;28;20036;-82
2023/01/23 04:09:06;;;;;;;61.83;26.02;;;;;;;-0.18;100.00;103515.00;5051823;28;20037;-82
2023/01/23 04:11:32;;;;;;;59.22;25.33;;;;;;;-0.17;100.00;103516.78;5051263;28;20086;-81
2023/01/23 04:13:57;;;;;;;55.20;26.00;;;;;;;-0.20;100.00;103514.91;5051009;28;20033;-81
2023/01/23 04:16:22;;;;;;;60.95;26.38;;;;;;;-0.17;100.00;103521.91;5049595;28;20029;-82
2023/01/23 04:18:49;;;;;;;67.15;27.58;;;;;;;-0.17;100.00;103524.47;5051180;28;20037;-81
2023/01/23 04:21:14;;;;;;;58.35;26.23;;;;;;;-0.19;100.00;103523.50;5048841;28;20064;-81
2023/01/23 04:23:40;;;;;;;61.00;25.95;;;;;;;-0.17;100.00;103529.59;5051623;28;20057;-81
2023/01/23 04:26:05;;;;;;;58.33;26.77;;;;;;;-0.18;100.00;103523.59;5050598;28;20029;-81
2023/01/23 04:28:30;;;;;;;59.42;26.35;;;;;;;-0.16;100.00;103526.28;5049440;28;20100;-81
2023/01/23 04:30:56;;;;;;;61.75;26.77;;;;;;;-0.17;100.00;103530.47;5043135;28;20029;-81
2023/01/23 04:33:21;;;;;;;60.58;27.27;;;;;;;-0.18;100.00;103533.84;5046987;28;20515;-81
2023/01/23 04:35:51;;;;;;;60.38;24.98;;;;;;;-0.16;100.00;103539.09;5051376;28;20029;-81
2023/01/23 04:38:17;;;;;;;60.40;25.90;;;;;;;-0.25;100.00;103519.75;5050629;28;20029;-82
2023/01/23 04:40:42;;;;;;;62.08;27.27;;;;;;;-0.15;100.00;103535.72;5050033;28;20083;-81
2023/01/23 04:43:08;;;;;;;63.50;26.25;;;;;;;-0.16;100.00;103539.97;5050496;28;20029;-82
2023/01/23 04:45:33;;;;;;;58.35;26.17;;;;;;;-0.16;100.00;103544.22;5043270;28;20040;-81
2023/01/23 04:47:59;;;;;;;59.28;27.83;;;;;;;-0.16;100.00;103533.97;5048268;28;20025;-81
2023/01/23 04:50:24;;;;;;;67.00;26.73;;;;;;;-0.22;100.00;103531.88;5031238;28;20025;-81
2023/01/23 04:52:51;;;;;;;57.38;27.45;;;;;;;-0.19;100.00;103544.03;5050656;28;20056;-82
2023/01/23 04:55:16;;;;;;;64.32;26.83;;;;;;;-0.16;100.00;103544.22;5049891;28;20377;-81
2023/01/23 04:57:41;;;;;;;58.15;26.08;;;;;;;-0.16;100.00;103539.97;5049781;28;20041;-81
2023/01/23 05:00:08;;;;;;;65.63;26.83;;;;;;;-0.16;100.00;103551.91;5050048;28;20483;-81
2023/01/23 05:02:33;;;;;;;62.72;27.20;;;;;;;-0.16;100.00;103546.78;5041638;28;20033;-81
2023/01/23 05:04:58;;;;;;;67.97;28.05;;;;;;;-0.15;100.00;103551.09;5051798;28;20047;-81
2023/01/23 05:07:24;;;;;;;66.00;27.50;;;;;;;-0.14;100.00;103556.31;5051229;28;20094;-81
2023/01/23 05:09:49;;;;;;;68.85;27.98;;;;;;;-0.15;100.00;103551.09;5052639;28;20468;-81
2023/01/23 05:12:14;;;;;;;65.10;27.23;;;;;;;-0.13;100.00;103549.50;5055462;28;20033;-82
2023/01/23 05:14:40;;;;;;;59.42;26.20;;;;;;;-0.18;100.00;103541.53;5055878;28;20033;-81
2023/01/23 05:17:05;;;;;;;68.15;27.10;;;;;;;-0.15;100.00;103546.88;5053599;28;20049;-81
2023/01/23 05:19:31;;;;;;;58.40;27.55;;;;;;;-0.15;100.00;103553.69;5041458;28;20470;-81
2023/01/23 05:21:56;;;;;;;65.18;26.90;;;;;;;-0.12;100.00;103557.31;5054757;28;20036;-81
2023/01/23 05:24:21;;;;;;;62.22;27.52;;;;;;;-0.12;100.00;103559.00;5052874;28;20029;-81
2023/01/23 05:26:47;;;;;;;64.78;27.77;;;;;;;-0.08;100.00;103558.41;5053836;28;20025;-81
2023/01/23 05:29:12;;;;;;;68.20;26.88;;;;;;;-0.09;100.00;103564.31;5044696;28;20021;-82
2023/01/23 05:31:37;;;;;;;62.58;27.30;;;;;;;-0.10;100.00;103565.09;5044918;28;20026;-81
2023/01/23 05:34:03;;;;;;;63.80;27.23;;;;;;;-0.12;100.00;103561.56;5053919;28;20025;-81
2023/01/23 05:36:28;;;;;;;66.07;28.80;;;;;;;-0.10;100.00;103565.09;5048170;28;20096;-81
2023/01/23 05:38:54;;;;;;;68.78;28.38;;;;;;;-0.14;100.00;103553.75;5055145;28;20021;-82
2023/01/23 05:41:20;;;;;;;68.03;27.42;;;;;;;-0.08;100.00;103569.53;5053297;28;20039;-81
2023/01/23 05:43:45;;;;;;;67.32;27.58;;;;;;;-0.14;100.00;103555.44;5054721;28;20021;-81
2023/01/23 05:46:10;;;;;;;66.75;27.77;;;;;;;-0.10;100.00;103559.97;5053175;28;20538;-82
2023/01/23 05:48:35;;;;;;;67.32;27.13;;;;;;;-0.09;100.00;103561.75;5055291;28;20051;-82
2023/01/23 05:51:02;;;;;;;66.75;27.73;;;;;;;-0.07;100.00;103575.56;5054148;28;20056;-82
2023/01/23 05:53:28;;;;;;;65.57;27.40;;;;;;;-0.08;100.00;103568.66;5042964;28;20377;-82
2023/01/23 05:55:53;;;;;;;65.60;28.05;;;;;;;-0.06;100.00;103574.78;5051275;28;20028;-82
2023/01/23 05:58:18;;;;;;;65.93;28.75;;;;;;;-0.03;100.00;103577.53;5051614;28;20051;-82
2023/01/23 06:00:43;;;;;;;64.60;27.88;;;;;;;-0.03;100.00;103582.66;5053468;28;20029;-81
2023/01/23 06:03:09;;;;;;;61.42;28.08;;;;;;;-0.08;100.00;103572.09;5047239;28;20100;-83
2023/01/23 06:05:34;;;;;;;60.80;28.13;;;;;;;-0.03;100.00;103581.00;5053998;28;20043;-81
2023/01/23 06:07:59;;;;;;;66.28;28.00;;;;;;;-0.01;100.00;103588.78;5045911;28;20473;-82
2023/01/23 06:10:24;;;;;;;77.93;29.15;;;;;;;-0.01;100.00;103587.09;5052148;28;20036;-81
2023/01/23 06:12:50;;;;;;;65.32;28.05;;;;;;;0.00;100.00;103588.00;5052943;28;20040;-81
2023/01/23 06:15:15;;;;;;;73.60;28.77;;;;;;;-0.03;100.00;103586.13;5041731;28;20024;-82
2023/01/23 06:17:40;;;;;;;67.78;28.05;;;;;;;-0.01;100.00;103583.63;5054530;28;20041;-81
2023/01/23 06:20:06;;;;;;;71.10;28.65;;;;;;;0.00;100.00;103593.13;5053543;28;20039;-81
2023/01/23 06:22:32;;;;;;;69.50;28.40;;;;;;;-0.01;100.00;103591.34;5051745;28;20033;-81
2023/01/23 06:24:57;;;;;;;65.50;30.40;;;;;;;-0.08;100.00;103579.78;5052966;28;20054;-81
2023/01/23 06:27:22;;;;;;;66.45;28.50;;;;;;;0.00;100.00;103598.25;5050371;28;20048;-81
2023/01/23 06:29:48;;;;;;;67.75;27.55;;;;;;;-0.01;100.00;103596.47;5054280;28;20029;-81
2023/01/23 06:32:13;;;;;;;66.13;28.70;;;;;;;-0.08;100.00;103581.47;5042847;28;20032;-81
2023/01/23 06:34:39;;;;;;;62.15;27.27;;;;;;;-0.04;100.00;103592.03;5053627;28;20033;-81
2023/01/23 06:37:04;;;;;;;67.00;27.77;;;;;;;-0.02;100.00;103594.69;5053659;28;20041;-81
2023/01/23 06:39:29;;;;;;;69.90;28.48;;;;;;;-0.09;100.00;103578.03;5053421;28;20017;-82
2023/01/23 06:41:56;;;;;;;67.47;28.52;;;;;;;-0.06;100.00;103579.91;5048807;28;20410;-81
2023/01/23 06:44:22;;;;;;;63.15;27.60;;;;;;;0.01;100.00;103594.91;5053365;28;20024;-81
2023/01/23 06:46:48;;;;;;;65.25;29.13;;;;;;;0.00;100.00;103595.69;5053092;28;20032;-81
2023/01/23 06:49:14;;;;;;;69.88;28.83;;;;;;;-0.12;100.00;103576.94;5053547;28;20025;-81
2023/01/23 06:51:39;;;;;;;62.83;28.48;;;;;;;0.02;100.00;103600.91;5053948;28;20496;-81
2023/01/23 06:54:05;;;;;;;64.55;27.98;;;;;;;0.04;100.00;103596.78;5052855;28;20086;-81
2023/01/23 06:56:30;;;;;;;68.57;27.55;;;;;;;0.03;100.00;103597.53;5050454;28;20029;-81
2023/01/23 06:58:56;;;;;;;63.60;26.95;;;;;;;0.05;100.00;103598.53;5053916;28;20036;-82
2023/01/23 07:01:21;;;;;;;69.88;29.05;;;;;;;0.05;100.00;103602.00;5051569;28;20037;-81
2023/01/23 07:03:46;;;;;;;63.65;27.73;;;;;;;0.03;100.00;103607.81;5034634;28;20033;-81
2023/01/23 07:06:13;;;;;;;63.80;26.13;;;;;;;0.06;100.00;103614.00;5052950;28;20477;-81
2023/01/23 07:08:40;;;;;;;71.97;27.55;;;;;;;0.02;100.00;103606.03;5052637;28;20025;-81
2023/01/23 07:11:05;;;;;;;67.72;27.90;;;;;;;0.07;100.00;103615.81;5051626;28;20031;-81
2023/01/23 07:13:31;;;;;;;64.75;26.95;;;;;;;0.03;100.00;103607.81;5051735;28;20104;-81
2023/01/23 07:15:56;;;;;;;67.03;28.42;;;;;;;0.06;100.00;103616.56;5050764;28;20083;-82
2023/01/23 07:18:22;;;;;;;64.32;28.58;;;;;;;0.08;100.00;103629.53;5049754;28;20395;-81
2023/01/23 07:20:48;;;;;;;67.00;27.67;;;;;;;0.03;100.00;103618.94;5052696;28;20051;-82
2023/01/23 07:23:14;;;;;;;67.00;30.10;;;;;;;0.02;100.00;103621.44;5050341;28;20108;-81
2023/01/23 07:25:39;;;;;;;66.75;27.58;;;;;;;0.10;100.00;103625.34;5050501;28;20124;-82
2023/01/23 07:28:05;;;;;;;68.53;27.42;;;;;;;-0.01;100.00;103606.72;5045170;28;20108;-81
2023/01/23 07:30:31;;;;;;;64.45;27.95;;;;;;;0.07;100.00;103625.19;5040802;28;20546;-81
2023/01/23 07:32:57;;;;;;;67.40;28.73;;;;;;;0.13;100.00;103638.38;5046176;28;20500;-81
2023/01/23 07:35:23;;;;;;;71.22;28.35;;;;;;;0.11;100.00;103634.84;5051912;28;20116;-82
2023/01/23 07:37:49;;;;;;;69.25;28.40;;;;;;;0.12;100.00;103640.06;5050747;28;20044;-82
2023/01/23 07:40:14;;;;;;;67.25;27.63;;;;;;;0.15;100.00;103650.53;5048857;28;20499;-82
2023/01/23 07:42:40;;;;;;;65.55;28.45;;;;;;;0.16;100.00;103647.19;5041182;28;20029;-82
2023/01/23 07:45:07;;;;;;;58.08;26.55;;;;;;;0.18;100.00;103650.72;5050301;28;20528;-81
2023/01/23 07:47:32;;;;;;;65.57;27.70;;;;;;;0.16;100.00;103643.72;5047871;28;20029;-81
2023/01/23 07:49:57;;;;;;;65.72;27.75;;;;;;;0.16;100.00;103646.28;5049923;28;20078;-82
2023/01/23 07:52:23;;;;;;;67.93;28.98;;;;;;;0.20;100.00;103651.72;5050764;28;20047;-83
2023/01/23 07:54:48;;;;;;;64.50;28.60;;;;;;;0.26;100.00;103663.16;5044112;28;20377;-82
2023/01/23 07:57:14;;;;;;;63.30;27.92;;;;;;;0.22;100.00;103654.38;5050740;28;20040;-82
2023/01/23 07:59:40;;;;;;;69.03;27.98;;;;;;;0.24;100.00;103660.50;5052741;28;20444;-82
2023/01/23 08:02:05;;;;;;;65.63;28.42;;;;;;;0.28;100.00;103666.72;5042472;28;20106;-82
2023/01/23 08:04:30;;;;;;;64.68;28.00;;;;;;;0.28;100.00;103671.84;5050406;28;20025;-82
2023/01/23 08:06:55;;;;;;;65.28;28.40;;;;;;;0.30;100.00;103681.41;5044879;28;20025;-82
2023/01/23 08:09:22;;;;;;;58.22;27.08;;;;;;;0.31;100.00;103672.03;5046171;28;20439;-82
2023/01/23 08:11:51;;;;;;;64.13;27.77;;;;;;;0.19;100.00;103647.34;5052056;28;20106;-82
2023/01/23 08:14:16;;;;;;;61.22;27.67;;;;;;;0.22;100.00;103646.66;5049101;28;20032;-82
2023/01/23 08:16:42;;;;;;;60.97;27.25;;;;;;;0.38;100.00;103669.94;5051998;28;20028;-82
2023/01/23 08:19:07;;;;;;;62.10;27.27;;;;;;;0.40;100.00;103677.75;5051611;28;20108;-83
2023/01/23 08:21:32;;;;;;;66.43;28.08;;;;;;;0.40;100.00;103675.19;5052052;28;20028;-83
2023/01/23 08:24:00;;;;;;;58.33;27.70;;;;;;;0.35;100.00;103668.88;5052079;28;20096;-82
2023/01/23 08:26:25;;;;;;;65.03;28.65;;;;;;;0.38;100.00;103656.22;5048341;28;20036;-83
2023/01/23 08:28:51;;;;;;;61.45;27.15;;;;;;;0.46;100.00;103679.03;5044061;28;20108;-82
2023/01/23 08:31:16;;;;;;;58.70;28.10;;;;;;;0.48;100.00;103668.84;5046538;28;20063;-82
2023/01/23 08:33:42;;;;;;;58.80;26.92;;;;;;;0.49;100.00;103672.31;5049116;28;20052;-82
2023/01/23 08:36:08;;;;;;;62.28;29.27;;;;;;;0.43;100.00;103662.56;5051246;28;20086;-81
2023/01/23 08:38:33;;;;;;;58.03;27.38;;;;;;;0.54;100.00;103676.06;5049883;28;20029;-82
2023/01/23 08:41:00;;;;;;;58.28;26.95;;;;;;;0.57;100.00;103682.28;5051883;28;20044;-82
2023/01/23 08:43:26;;;;;;;58.95;27.23;;;;;;;0.55;100.00;103678.72;5050255;28;20029;-82
2023/01/23 08:45:54;;;;;;;60.33;26.23;;;;;;;0.63;100.00;103692.06;5050067;28;20368;-82
2023/01/23 08:48:21;;;;;;;59.92;28.88;;;;;;;0.63;100.00;103692.94;5050281;28;20029;-82
2023/01/23 08:50:46;;;;;;;58.65;28.08;;;;;;;0.64;100.00;103692.13;5051083;28;20032;-81
2023/01/23 08:53:13;;;;;;;56.05;27.33;;;;;;;0.65;100.00;103688.78;5047763;28;20104;-82
2023/01/23 08:55:38;;;;;;;57.85;26.48;;;;;;;0.69;100.00;103695.00;5040979;28;20025;-82
2023/01/23 08:58:06;;;;;;;57.70;26.65;;;;;;;0.74;100.00;103695.28;5050501;28;20104;-81
2023/01/23 09:00:32;;;;;;;57.95;27.20;;;;;;;0.73;100.00;103693.50;5050795;28;20047;-81
2023/01/23 09:03:01;;;;;;;59.85;27.50;;;;;;;0.77;100.00;103691.22;5051813;28;20497;-82
2023/01/23 09:05:28;;;;;;;58.47;27.15;;;;;;;0.81;100.00;103695.75;5051820;28;20025;-82
2023/01/23 09:07:54;;;;;;;53.00;25.63;;;;;;;0.79;100.00;103684.50;5048626;28;20029;-80
2023/01/23 09:10:20;;;;;;;50.15;25.08;;;;;;;0.84;100.00;103690.81;5050342;28;20051;-80
2023/01/23 09:12:45;;;;;;;52.42;25.40;;;;;;;0.82;100.00;103683.81;5049644;28;20116;-81
2023/01/23 09:15:11;;;;;;;52.55;25.90;;;;;;;0.87;100.00;103698.69;5050731;28;20104;-81
2023/01/23 09:17:37;;;;;;;54.13;26.33;;;;;;;0.88;100.00;103699.59;5050255;28;20027;-80
2023/01/23 09:20:05;;;;;;;52.40;26.95;;;;;;;0.95;100.00;103701.75;5047771;28;20029;-81
2023/01/23 09:22:31;;;;;;;51.15;25.70;;;;;;;1.00;100.00;103699.47;5050349;28;20033;-81
2023/01/23 09:24:56;;;;;;;53.88;25.95;;;;;;;1.05;100.00;103703.22;5051494;28;20029;-81
2023/01/23 09:27:23;;;;;;;53.92;27.52;;;;;;;0.98;100.00;103676.25;5043402;28;20040;-80
2023/01/23 09:29:49;;;;;;;55.20;25.35;;;;;;;1.09;100.00;103690.63;5045832;28;20100;-81
2023/01/23 09:32:15;;;;;;;47.08;24.30;;;;;;;1.14;100.00;103686.69;5047106;28;20025;-81
2023/01/23 09:34:40;;;;;;;55.47;25.17;;;;;;;1.26;100.00;103673.66;5048025;28;20087;-81
2023/01/23 09:37:05;;;;;;;50.25;25.90;;;;;;;1.37;100.00;103682.00;5046199;28;20388;-81
2023/01/23 09:39:30;;;;;;;47.80;24.58;;;;;;;1.46;100.00;103672.28;5045175;28;20068;-80
2023/01/23 09:41:56;;;;;;;52.60;24.73;;;;;;;1.58;100.00;103679.84;5050532;28;20021;-81
2023/01/23 09:44:34;;;;;;;54.00;25.65;;;;;;;1.69;100.00;103689.06;5046085;28;20443;-81
2023/01/23 09:47:16;;;;;;;49.50;24.67;;;;;;;1.69;100.00;103681.34;5045345;28;20028;-81
2023/01/23 09:49:41;;;;;;;41.90;23.33;;;;;;;1.75;100.00;103698.81;5046406;28;20128;-80
2023/01/23 09:52:15;;;;;;;43.53;22.45;;;;;;;1.77;100.00;103698.13;5050599;28;20104;-81
2023/01/23 09:54:51;;;;;;;44.15;23.80;;;;;;;1.76;100.00;103700.59;5045754;28;20056;-81
2023/01/23 09:57:24;;;;;;;42.90;23.30;;;;;;;1.82;100.00;103706.97;5049586;28;20013;-81
2023/01/23 10:00:14;;;;;;;41.90;22.80;;;;;;;1.74;100.00;103690.22;5055372;28;20055;-80
2023/01/23 10:02:43;;;;;;;41.47;23.38;;;;;;;1.75;100.00;103707.44;5053202;28;20025;-80
2023/01/23 10:05:13;;;;;;;43.25;22.35;;;;;;;1.74;100.00;103715.94;5054562;28;20039;-81
2023/01/23 10:08:02;;;;;;;41.00;21.83;;;;;;;1.77;100.00;103713.56;5048081;28;20063;-79
2023/01/23 10:10:45;;;;;;;40.53;22.92;;;;;;;1.75;100.00;103706.53;5040576;28;20038;-80
2023/01/23 10:13:17;;;;;;;45.15;23.55;;;;;;;1.78;100.00;103705.03;5047901;28;20028;-80
2023/01/23 10:16:07;;;;;;;43.33;23.98;;;;;;;1.82;100.00;103706.97;5049165;28;20556;-80
2023/01/23 10:18:53;;;;;;;47.10;24.40;;;;;;;1.85;100.00;103703.69;5043272;28;20029;-80
2023/01/23 10:21:37;;;;;;;41.00;21.98;;;;;;;1.91;100.00;103706.63;5051361;28;20114;-83
2023/01/23 10:24:21;;;;;;;42.67;23.50;;;;;;;1.90;100.00;103709.09;5054744;28;20221;-82
2023/01/23 10:26:47;;;;;;;44.20;23.17;;;;;;;1.84;100.00;103704.50;5051831;28;20052;-81
2023/01/23 10:29:37;;;;;;;41.38;21.27;;;;;;;1.92;100.00;103716.13;5046116;28;20028;-82
2023/01/23 10:32:05;;;;;;;36.63;20.85;;;;;;;1.86;100.00;103710.63;5053288;28;20104;-81
2023/01/23 10:34:37;;;;;;;40.58;22.92;;;;;;;1.82;100.00;103701.84;5052009;28;20102;-79
2023/01/23 10:37:30;;;;;;;37.50;20.55;;;;;;;1.91;100.00;103708.31;5048883;28;20044;-79
2023/01/23 10:40:03;;;;;;;39.30;20.85;;;;;;;1.89;100.00;103708.22;5042851;28;20088;-79
2023/01/23 10:42:29;;;;;;;39.60;20.63;;;;;;;1.91;100.00;103714.34;5048945;28;20044;-81
2023/01/23 10:44:54;;;;;;;38.92;21.40;;;;;;;1.86;100.00;103708.97;5050283;28;20021;-78
2023/01/23 10:47:30;;;;;;;40.92;21.40;;;;;;;1.86;100.00;103713.19;5046228;28;20021;-79
2023/01/23 10:49:57;;;;;;;49.85;21.75;;;;;;;1.84;100.00;103699.38;5045612;28;20032;-79
2023/01/23 10:52:49;;;;;;;36.25;20.60;;;;;;;1.90;100.00;103711.69;5053342;28;20021;-79
2023/01/23 10:55:17;;;;;;;38.40;20.67;;;;;;;1.88;100.00;103704.75;5043366;28;20504;-79
2023/01/23 10:57:47;;;;;;;42.63;23.13;;;;;;;1.91;100.00;103709.22;5051492;28;20035;-79
2023/01/23 11:00:25;;;;;;;40.47;23.13;;;;;;;1.90;100.00;103696.25;5052767;28;20369;-79
2023/01/23 11:02:50;;;;;;;38.00;20.58;;;;;;;1.95;100.00;103703.44;5047718;28;20094;-80
2023/01/23 11:05:35;;;;;;;35.05;20.35;;;;;;;2.01;100.00;103703.78;5052565;28;20102;-79
2023/01/23 11:08:01;;;;;;;35.75;19.98;;;;;;;2.04;100.00;103708.22;5050928;28;21864;-80
2023/01/23 11:10:26;;;;;;;38.88;20.33;;;;;;;2.05;100.00;103695.44;5051855;28;20658;-80